Time;durP1;ratioP1;P1;durP2;ratioP2;P2;SDS_P1;SDS_P2;PMS_P1;PMS_P2;Temp;Humidity;BMP_temperature;BMP_pressure;BME280_temperature;BME280_humidity;BME280_pressure;Samples;Min_cycle;Max_cycle;Signal;HPM_P1;HPM_P2
2022/01/03 00:01:09;;;;;;;7.63;4.70;;;11.80;99.90;;;;;;5092496;28;20442;-52
2022/01/03 00:03:35;;;;;;;5.30;4.80;;;11.80;99.90;;;;;;5093018;28;20822;-51
2022/01/03 00:06:03;;;;;;;9.30;5.07;;;11.70;99.90;;;;;;5092928;28;20443;-50
2022/01/03 00:08:30;;;;;;;7.63;4.80;;;11.70;99.90;;;;;;5092400;28;20422;-52
2022/01/03 00:10:58;;;;;;;6.80;4.40;;;11.60;99.90;;;;;;5092865;28;20488;-50
2022/01/03 00:13:27;;;;;;;8.50;5.67;;;11.70;99.90;;;;;;5092532;28;20824;-52
2022/01/03 00:15:55;;;;;;;6.63;4.30;;;11.70;99.90;;;;;;5092834;28;20434;-51
2022/01/03 00:18:23;;;;;;;6.97;4.67;;;11.70;99.90;;;;;;5092446;28;20470;-51
2022/01/03 00:20:56;;;;;;;5.10;4.20;;;11.50;99.90;;;;;;5092618;28;20439;-51
2022/01/03 00:23:25;;;;;;;5.87;4.53;;;11.60;99.90;;;;;;5092360;28;20470;-50
2022/01/03 00:25:54;;;;;;;5.53;4.60;;;11.70;99.90;;;;;;5092622;28;20891;-51
2022/01/03 00:28:24;;;;;;;5.70;4.07;;;11.70;99.90;;;;;;5091946;28;20435;-51
2022/01/03 00:30:55;;;;;;;4.77;4.00;;;11.60;99.90;;;;;;5092243;28;20434;-51
2022/01/03 00:33:24;;;;;;;7.97;4.37;;;11.60;99.90;;;;;;5091410;28;20534;-51
2022/01/03 00:35:54;;;;;;;7.13;4.33;;;11.70;99.90;;;;;;5092832;28;20458;-52
2022/01/03 00:38:22;;;;;;;5.20;3.90;;;11.70;99.90;;;;;;5092036;28;20449;-51
2022/01/03 00:40:49;;;;;;;6.60;4.57;;;11.70;99.90;;;;;;5087592;28;20436;-51
2022/01/03 00:43:17;;;;;;;8.80;4.57;;;11.70;99.90;;;;;;5088097;28;20558;-51
2022/01/03 00:45:44;;;;;;;5.20;4.67;;;11.70;99.90;;;;;;5092021;28;20420;-52
2022/01/03 00:48:13;;;;;;;6.80;4.10;;;11.70;99.90;;;;;;5091585;28;20407;-52
2022/01/03 00:50:41;;;;;;;5.07;4.20;;;11.70;99.90;;;;;;5073832;28;20471;-51
2022/01/03 00:53:08;;;;;;;5.23;4.23;;;11.70;99.90;;;;;;5091634;28;20460;-49
2022/01/03 00:55:34;;;;;;;7.53;3.63;;;11.70;99.90;;;;;;5092086;28;20432;-50
2022/01/03 00:58:04;;;;;;;6.30;3.93;;;11.70;99.90;;;;;;5073284;28;20534;-49
2022/01/03 01:00:32;;;;;;;8.17;4.23;;;11.70;99.90;;;;;;5092160;28;20410;-50
2022/01/03 01:03:04;;;;;;;6.70;4.10;;;11.80;99.90;;;;;;5073299;28;20593;-49
2022/01/03 01:05:33;;;;;;;6.90;3.77;;;11.70;99.90;;;;;;5073578;28;20822;-49
2022/01/03 01:08:00;;;;;;;5.30;3.97;;;11.70;99.90;;;;;;5073140;28;20483;-49
2022/01/03 01:10:29;;;;;;;6.37;4.30;;;11.70;99.90;;;;;;5073406;28;20442;-50
2022/01/03 01:12:57;;;;;;;6.20;3.93;;;11.70;99.90;;;;;;5073375;28;20463;-49
2022/01/03 01:15:26;;;;;;;5.33;4.00;;;11.70;99.90;;;;;;5091525;28;20434;-51
2022/01/03 01:17:54;;;;;;;7.03;4.07;;;11.70;99.90;;;;;;5072886;28;20797;-50
2022/01/03 01:20:23;;;;;;;3.83;3.33;;;11.70;99.90;;;;;;5073428;28;20447;-50
2022/01/03 01:22:53;;;;;;;6.60;3.63;;;11.70;99.90;;;;;;5072984;28;20470;-50
2022/01/03 01:28:07;;;;;;;4.23;2.67;;;11.60;99.90;;;;;;5030807;28;20444;-50
2022/01/03 01:30:35;;;;;;;4.37;3.00;;;11.40;99.90;;;;;;5073296;28;20548;-49
2022/01/03 01:33:06;;;;;;;5.77;3.53;;;11.60;99.90;;;;;;5073090;28;20586;-50
2022/01/03 01:35:40;;;;;;;3.97;3.10;;;11.60;99.90;;;;;;5073230;28;20456;-50
2022/01/03 01:38:10;;;;;;;6.33;3.47;;;11.60;99.90;;;;;;5072852;28;20645;-50
2022/01/03 01:40:43;;;;;;;4.67;3.27;;;11.50;99.90;;;;;;5070023;28;20783;-49
2022/01/03 01:43:12;;;;;;;5.30;3.77;;;11.50;99.90;;;;;;5072702;28;20808;-50
2022/01/03 01:45:42;;;;;;;3.57;3.07;;;11.40;99.90;;;;;;5072821;28;20985;-51
2022/01/03 01:48:12;;;;;;;3.80;2.40;;;11.40;99.90;;;;;;5072477;28;21002;-50
2022/01/03 01:50:41;;;;;;;4.43;2.97;;;11.40;99.90;;;;;;5073035;28;20447;-51
2022/01/03 01:53:10;;;;;;;4.50;3.07;;;11.40;99.90;;;;;;5073025;28;20465;-50
2022/01/03 01:55:48;;;;;;;2.93;2.60;;;11.20;99.90;;;;;;5073037;28;20572;-50
2022/01/03 01:58:24;;;;;;;3.23;2.87;;;11.30;99.90;;;;;;5072471;28;20504;-51
2022/01/03 02:00:59;;;;;;;4.03;2.83;;;11.10;99.90;;;;;;5073045;28;20917;-50
2022/01/03 02:03:46;;;;;;;4.93;2.97;;;11.30;99.90;;;;;;5072523;28;21019;-50
2022/01/03 02:06:27;;;;;;;3.67;2.93;;;11.40;99.90;;;;;;5072972;28;20794;-50
2022/01/03 02:09:05;;;;;;;4.10;3.20;;;11.30;99.90;;;;;;5072501;28;20960;-50
2022/01/03 02:11:49;;;;;;;4.43;3.10;;;11.20;99.90;;;;;;5072676;28;20482;-49
2022/01/03 02:14:15;;;;;;;3.33;2.67;;;11.20;99.90;;;;;;5091085;28;20908;-50
2022/01/03 02:16:42;;;;;;;3.30;2.20;;;11.10;99.90;;;;;;5072995;28;20468;-50
2022/01/03 02:19:09;;;;;;;3.37;2.23;;;11.00;99.90;;;;;;5072326;28;20543;-50
2022/01/03 02:21:37;;;;;;;3.20;2.20;;;11.00;99.90;;;;;;5072738;28;20993;-50
2022/01/03 02:24:09;;;;;;;5.73;2.57;;;11.10;99.90;;;;;;5072371;28;20561;-51
2022/01/03 02:26:37;;;;;;;4.33;2.43;;;11.20;99.90;;;;;;5072747;28;20957;-49
2022/01/03 02:29:05;;;;;;;2.37;2.17;;;11.10;99.90;;;;;;5090305;28;20456;-50
2022/01/03 02:31:32;;;;;;;4.20;2.30;;;11.20;99.90;;;;;;5072359;28;20489;-49
2022/01/03 02:34:00;;;;;;;2.83;2.20;;;11.20;99.90;;;;;;5090933;28;20445;-50
2022/01/03 02:36:30;;;;;;;2.90;2.13;;;11.10;99.90;;;;;;5072605;28;20425;-50
2022/01/03 02:38:58;;;;;;;2.00;1.63;;;11.20;99.90;;;;;;5090289;28;20472;-50
2022/01/03 02:41:25;;;;;;;2.40;1.60;;;11.40;99.90;;;;;;5069735;28;20451;-50
2022/01/03 02:43:55;;;;;;;2.67;1.90;;;11.30;99.90;;;;;;5072374;28;20546;-50
2022/01/03 02:46:22;;;;;;;3.20;1.80;;;11.30;99.90;;;;;;5072440;28;20443;-51
2022/01/03 02:48:49;;;;;;;2.47;1.80;;;11.30;99.90;;;;;;5090106;28;20526;-51
2022/01/03 02:51:16;;;;;;;5.20;3.00;;;11.10;99.90;;;;;;5072112;28;20536;-50
2022/01/03 02:53:43;;;;;;;5.10;2.10;;;11.20;99.90;;;;;;5072388;28;20585;-50
2022/01/03 02:56:11;;;;;;;2.87;1.60;;;11.20;99.90;;;;;;5073483;28;20443;-50
2022/01/03 02:58:38;;;;;;;2.87;1.70;;;10.90;99.90;;;;;;5075539;28;20501;-50
2022/01/03 03:01:05;;;;;;;4.80;1.87;;;11.20;99.90;;;;;;5075668;28;20448;-50
2022/01/03 03:03:47;;;;;;;3.43;1.70;;;11.00;99.90;;;;;;5075912;28;20417;-50
2022/01/03 03:06:14;;;;;;;3.63;1.50;;;11.20;99.90;;;;;;5093836;28;20426;-49
2022/01/03 03:08:40;;;;;;;3.30;2.07;;;11.10;99.90;;;;;;5075492;28;20817;-49
2022/01/03 03:11:07;;;;;;;2.70;1.90;;;10.80;99.90;;;;;;5075512;28;20540;-51
2022/01/03 03:13:36;;;;;;;2.70;1.60;;;11.00;99.90;;;;;;5093994;28;20441;-50
2022/01/03 03:16:05;;;;;;;3.50;1.90;;;10.90;99.90;;;;;;5075631;28;20451;-50
2022/01/03 03:18:32;;;;;;;2.93;1.47;;;11.10;99.90;;;;;;5075185;28;20541;-51
2022/01/03 03:20:59;;;;;;;1.80;1.30;;;11.10;99.90;;;;;;5075588;28;20550;-50
2022/01/03 03:23:27;;;;;;;3.77;2.10;;;11.10;99.90;;;;;;5093495;28;20447;-51
2022/01/03 03:25:55;;;;;;;2.87;1.37;;;11.00;99.90;;;;;;5093601;28;20478;-50
2022/01/03 03:28:25;;;;;;;1.77;1.47;;;11.00;99.90;;;;;;5075073;28;20452;-50
2022/01/03 03:30:54;;;;;;;3.10;1.63;;;10.90;99.90;;;;;;5075352;28;20469;-51
2022/01/03 03:33:30;;;;;;;4.23;1.60;;;11.10;99.90;;;;;;5075361;28;20456;-50
2022/01/03 03:36:00;;;;;;;2.83;1.70;;;11.10;99.90;;;;;;5075150;28;20456;-50
2022/01/03 03:38:28;;;;;;;3.07;1.70;;;11.10;99.90;;;;;;5074979;28;20456;-50
2022/01/03 03:40:58;;;;;;;2.90;1.30;;;11.00;99.90;;;;;;5087455;28;20449;-50
2022/01/03 03:43:30;;;;;;;3.30;1.53;;;11.10;99.90;;;;;;5074831;28;20986;-51
2022/01/03 03:45:59;;;;;;;2.93;1.40;;;11.10;99.90;;;;;;5075178;28;20479;-50
2022/01/03 03:48:25;;;;;;;3.27;1.37;;;11.00;99.90;;;;;;5074879;28;20426;-50
2022/01/03 03:50:52;;;;;;;3.40;1.60;;;11.10;99.90;;;;;;5093211;28;21185;-50
2022/01/03 03:53:20;;;;;;;1.50;1.20;;;11.00;99.90;;;;;;5075023;28;21045;-50
2022/01/03 03:55:48;;;;;;;2.80;1.70;;;11.00;99.90;;;;;;5074665;28;20428;-50
2022/01/03 03:58:16;;;;;;;6.07;1.30;;;11.00;99.90;;;;;;5074460;28;20417;-49
2022/01/03 04:00:44;;;;;;;2.40;1.43;;;10.80;99.90;;;;;;5074749;28;20446;-51
2022/01/03 04:03:12;;;;;;;2.63;1.93;;;11.40;99.90;;;;;;5074683;28;20466;-50
2022/01/03 04:05:40;;;;;;;2.10;1.37;;;11.00;99.90;;;;;;5092778;28;20955;-50
2022/01/03 04:08:07;;;;;;;6.00;1.83;;;11.00;99.90;;;;;;5091303;28;20448;-48
2022/01/03 04:10:33;;;;;;;6.77;2.00;;;10.90;99.90;;;;;;5092788;28;20409;-50
2022/01/03 04:13:01;;;;;;;2.30;1.50;;;11.00;99.90;;;;;;5074414;28;20527;-50
2022/01/03 04:15:28;;;;;;;4.33;2.17;;;11.00;99.90;;;;;;5074361;28;20447;-50
2022/01/03 04:17:56;;;;;;;4.33;1.80;;;11.00;99.90;;;;;;5073849;28;20448;-50
2022/01/03 04:20:25;;;;;;;3.43;1.50;;;11.00;99.90;;;;;;5092852;28;20443;-50
2022/01/03 04:22:52;;;;;;;3.00;1.23;;;11.00;99.90;;;;;;5074001;28;20482;-50
2022/01/03 04:25:18;;;;;;;5.13;2.10;;;11.00;99.90;;;;;;5092492;28;20467;-48
2022/01/03 04:27:45;;;;;;;5.47;1.67;;;11.00;99.90;;;;;;5091887;28;20520;-50
2022/01/03 04:30:12;;;;;;;3.37;1.50;;;10.80;99.90;;;;;;5074333;28;20560;-49
2022/01/03 04:32:40;;;;;;;4.47;1.67;;;11.00;99.90;;;;;;5074064;28;20809;-49
2022/01/03 04:35:07;;;;;;;2.50;1.20;;;11.00;99.90;;;;;;5092395;28;20429;-49
2022/01/03 04:37:35;;;;;;;1.60;1.00;;;11.00;99.90;;;;;;5092067;28;20899;-50
2022/01/03 04:40:03;;;;;;;2.10;1.43;;;10.80;99.90;;;;;;5073803;28;20451;-49
2022/01/03 04:42:30;;;;;;;2.47;1.10;;;11.00;99.90;;;;;;5073535;28;20559;-50
2022/01/03 04:44:57;;;;;;;2.90;1.60;;;11.00;99.90;;;;;;5073847;28;20445;-49
2022/01/03 04:47:24;;;;;;;1.60;1.07;;;11.00;99.90;;;;;;5073669;28;20503;-50
2022/01/03 04:49:50;;;;;;;1.57;1.07;;;10.90;99.90;;;;;;5073468;28;20432;-50
2022/01/03 04:52:18;;;;;;;1.50;0.90;;;10.90;99.90;;;;;;5073573;28;20470;-50
2022/01/03 04:54:46;;;;;;;1.87;1.00;;;10.90;99.90;;;;;;5073892;28;20460;-51
2022/01/03 04:57:13;;;;;;;2.50;0.73;;;10.80;99.90;;;;;;5073514;28;20782;-50
2022/01/03 04:59:41;;;;;;;0.97;0.60;;;10.80;99.90;;;;;;5073212;28;20509;-50
2022/01/03 05:02:07;;;;;;;2.47;0.80;;;10.60;99.90;;;;;;5073303;28;20441;-52
2022/01/03 05:04:35;;;;;;;2.30;0.70;;;10.80;99.90;;;;;;5073684;28;20425;-51
2022/01/03 05:07:02;;;;;;;1.40;0.60;;;10.70;99.90;;;;;;5073301;28;20417;-50
2022/01/03 05:09:29;;;;;;;2.93;0.97;;;10.70;99.90;;;;;;5073103;28;20632;-50
2022/01/03 05:11:57;;;;;;;1.10;0.60;;;10.70;99.90;;;;;;5091750;28;20781;-51
2022/01/03 05:14:24;;;;;;;1.50;0.67;;;10.70;99.90;;;;;;5073203;28;20447;-51
2022/01/03 05:16:52;;;;;;;2.53;1.10;;;10.60;99.90;;;;;;5073242;28;20438;-50
2022/01/03 05:19:21;;;;;;;2.30;0.90;;;10.60;99.90;;;;;;5072297;28;20473;-51
2022/01/03 05:21:48;;;;;;;2.10;0.70;;;10.70;99.90;;;;;;5073400;28;20465;-51
2022/01/03 05:24:15;;;;;;;1.90;0.80;;;10.70;99.90;;;;;;5073220;28;20472;-51
2022/01/03 05:26:42;;;;;;;1.80;1.07;;;10.50;99.90;;;;;;5091389;28;20476;-52
2022/01/03 05:29:10;;;;;;;1.83;0.87;;;10.30;99.90;;;;;;5091320;28;20487;-49
2022/01/03 05:34:08;;;;;;;1.47;0.60;;;10.50;99.90;;;;;;5028465;28;20515;-49
2022/01/03 05:36:35;;;;;;;2.07;0.80;;;10.50;99.90;;;;;;5013685;28;20423;-50
2022/01/03 05:39:01;;;;;;;1.97;0.90;;;10.40;99.90;;;;;;5013264;28;20453;-49
2022/01/03 05:41:29;;;;;;;1.60;0.80;;;10.40;99.90;;;;;;5031261;28;20442;-50
2022/01/03 05:43:56;;;;;;;2.77;0.73;;;10.30;99.90;;;;;;5013599;28;20443;-48
2022/01/03 05:46:25;;;;;;;1.73;1.07;;;10.40;99.90;;;;;;5013378;28;20526;-50
2022/01/03 05:48:52;;;;;;;1.50;0.90;;;10.40;99.90;;;;;;5013091;28;20502;-50
2022/01/03 05:51:19;;;;;;;3.33;1.00;;;10.30;99.90;;;;;;5013535;28;20956;-49
2022/01/03 05:53:45;;;;;;;2.07;1.00;;;10.30;99.90;;;;;;5013142;28;20466;-50
2022/01/03 05:56:12;;;;;;;2.90;1.13;;;10.30;99.90;;;;;;5013906;28;20537;-49
2022/01/03 05:58:39;;;;;;;2.70;1.50;;;10.30;99.90;;;;;;5013053;28;20840;-49
2022/01/03 06:01:06;;;;;;;2.50;1.03;;;10.00;99.90;;;;;;5013476;28;20547;-49
2022/01/03 06:03:37;;;;;;;1.77;1.07;;;10.20;99.90;;;;;;5013184;28;20455;-49
2022/01/03 06:08:46;;;;;;;1.90;1.00;;;10.20;99.90;;;;;;5009943;28;20936;-50
2022/01/03 06:11:13;;;;;;;4.00;1.67;;;10.20;99.90;;;;;;5013174;28;20791;-50
2022/01/03 06:13:40;;;;;;;2.03;1.30;;;10.10;99.90;;;;;;5013158;28;20479;-48
2022/01/03 06:16:07;;;;;;;4.83;2.10;;;10.10;99.90;;;;;;5013244;28;20495;-49
2022/01/03 06:18:38;;;;;;;4.77;1.70;;;10.20;99.90;;;;;;5012692;28;20470;-48
2022/01/03 06:21:07;;;;;;;1.90;1.30;;;10.30;99.90;;;;;;5013174;28;20818;-49
2022/01/03 06:23:39;;;;;;;3.50;1.73;;;10.20;99.90;;;;;;5012913;28;20460;-50
2022/01/03 06:26:06;;;;;;;3.00;1.50;;;10.20;99.90;;;;;;5012886;28;20473;-50
2022/01/03 06:28:46;;;;;;;5.50;1.70;;;10.00;99.90;;;;;;5013133;28;20522;-49
2022/01/03 06:31:15;;;;;;;3.73;1.30;;;10.20;99.90;;;;;;5014651;28;20542;-49
2022/01/03 06:33:43;;;;;;;4.93;1.90;;;10.10;99.90;;;;;;5034453;28;20495;-50
2022/01/03 06:36:10;;;;;;;1.73;1.13;;;10.20;99.90;;;;;;5017181;28;20423;-49
2022/01/03 06:38:37;;;;;;;3.80;1.60;;;10.20;99.90;;;;;;5016927;28;20455;-49
2022/01/03 06:41:05;;;;;;;5.10;1.80;;;10.20;99.90;;;;;;5016294;28;20456;-50
2022/01/03 06:43:32;;;;;;;3.83;1.93;;;10.20;99.90;;;;;;5016025;28;20526;-52
2022/01/03 06:45:59;;;;;;;4.63;2.27;;;10.20;99.90;;;;;;5017221;28;20469;-49
2022/01/03 06:48:26;;;;;;;5.50;1.90;;;10.20;99.90;;;;;;5033534;28;20414;-50
2022/01/03 06:50:53;;;;;;;5.47;1.80;;;10.20;99.90;;;;;;5016040;28;20430;-50
2022/01/03 06:53:20;;;;;;;8.53;1.97;;;10.20;99.90;;;;;;5016683;28;20454;-50
2022/01/03 06:55:47;;;;;;;4.67;1.67;;;10.30;99.90;;;;;;5016935;28;20454;-48
2022/01/03 06:58:14;;;;;;;7.33;2.03;;;10.30;99.90;;;;;;5016453;28;20473;-48
2022/01/03 07:00:41;;;;;;;10.80;2.20;;;10.30;99.90;;;;;;5016998;28;20696;-49
2022/01/03 07:03:08;;;;;;;4.83;2.53;;;10.30;99.90;;;;;;5017239;28;20443;-51
2022/01/03 07:05:35;;;;;;;9.40;2.47;;;10.60;99.90;;;;;;5034509;28;20845;-48
2022/01/03 07:08:03;;;;;;;6.93;2.43;;;10.30;99.90;;;;;;5034313;28;20441;-50
2022/01/03 07:10:30;;;;;;;10.10;3.73;;;10.30;99.90;;;;;;5033483;28;20415;-49
2022/01/03 07:12:59;;;;;;;6.80;3.07;;;10.40;99.90;;;;;;5033271;28;20487;-50
2022/01/03 07:20:56;;;;;;;5.97;2.87;;;10.40;99.90;;;;;;5012140;28;20427;-48
2022/01/03 07:23:24;;;;;;;16.57;3.77;;;10.40;99.90;;;;;;5033360;28;20789;-50
2022/01/03 07:25:52;;;;;;;7.40;3.53;;;10.20;99.90;;;;;;5033374;28;20881;-50
2022/01/03 07:28:19;;;;;;;18.60;4.30;;;10.50;99.90;;;;;;5032887;28;20434;-50
2022/01/03 07:30:46;;;;;;;9.60;3.60;;;10.50;99.90;;;;;;5033065;28;20415;-49
2022/01/03 07:33:13;;;;;;;10.13;2.80;;;10.50;99.90;;;;;;5033536;28;20463;-50
2022/01/03 07:35:40;;;;;;;12.17;3.47;;;10.60;99.90;;;;;;5032828;28;20438;-49
2022/01/03 07:38:07;;;;;;;10.07;3.10;;;10.60;99.90;;;;;;5032674;28;20915;-50
2022/01/03 07:40:35;;;;;;;16.50;4.20;;;10.40;99.90;;;;;;5033563;28;20440;-50
2022/01/03 07:43:02;;;;;;;11.00;2.57;;;10.60;99.90;;;;;;5032701;28;20438;-51
2022/01/03 07:45:29;;;;;;;8.53;2.80;;;10.60;99.90;;;;;;5032905;28;20454;-49
2022/01/03 07:47:56;;;;;;;15.20;5.90;;;10.60;99.90;;;;;;5032760;28;20569;-50
2022/01/03 07:50:22;;;;;;;11.57;6.53;;;10.60;99.90;;;;;;5034299;28;20444;-50
2022/01/03 07:52:49;;;;;;;13.60;4.83;;;10.60;99.90;;;;;;5033137;28;20518;-50
2022/01/03 07:55:16;;;;;;;12.97;4.90;;;10.60;99.90;;;;;;5032581;28;20441;-52
2022/01/03 07:57:44;;;;;;;7.90;3.37;;;10.60;99.90;;;;;;5032504;28;20527;-51
2022/01/03 08:00:13;;;;;;;9.30;4.47;;;10.70;99.90;;;;;;5033110;28;20790;-50
2022/01/03 08:02:41;;;;;;;8.77;3.53;;;10.70;99.90;;;;;;5032610;28;20814;-51
2022/01/03 08:05:10;;;;;;;7.10;3.53;;;10.70;99.90;;;;;;5032970;28;20445;-49
2022/01/03 08:07:37;;;;;;;8.50;3.00;;;10.70;99.90;;;;;;5032227;28;20634;-50
2022/01/03 08:10:05;;;;;;;7.10;3.30;;;10.60;99.90;;;;;;5032763;28;20433;-50
2022/01/03 08:12:32;;;;;;;10.63;3.13;;;10.80;99.90;;;;;;5033094;28;20433;-49
2022/01/03 08:15:00;;;;;;;9.07;2.80;;;10.80;99.90;;;;;;5033689;28;20418;-50
2022/01/03 08:17:27;;;;;;;8.90;2.87;;;10.80;99.90;;;;;;5032340;28;20433;-50
2022/01/03 08:19:53;;;;;;;20.63;3.57;;;10.70;99.90;;;;;;5032491;28;20437;-50
2022/01/03 08:22:20;;;;;;;10.93;3.20;;;10.80;99.90;;;;;;5032829;28;20436;-49
2022/01/03 08:24:46;;;;;;;7.47;3.00;;;10.80;99.90;;;;;;5032461;28;20402;-50
2022/01/03 08:27:13;;;;;;;12.97;4.23;;;10.80;99.90;;;;;;5032386;28;20459;-51
2022/01/03 08:29:40;;;;;;;10.90;2.40;;;10.80;99.90;;;;;;5032249;28;20456;-51
2022/01/03 08:32:08;;;;;;;9.87;4.57;;;10.70;99.90;;;;;;5032181;28;20451;-51
2022/01/03 08:34:34;;;;;;;8.93;2.87;;;10.70;99.90;;;;;;5032787;28;20433;-51
2022/01/03 08:37:01;;;;;;;10.70;3.53;;;10.70;99.90;;;;;;5031953;28;20408;-50
2022/01/03 08:39:28;;;;;;;8.80;4.23;;;10.60;99.90;;;;;;5033257;28;20419;-50
2022/01/03 08:41:55;;;;;;;10.93;3.70;;;10.60;99.90;;;;;;5032591;28;20436;-51
2022/01/03 08:44:22;;;;;;;10.97;3.60;;;10.60;99.90;;;;;;5033052;28;20420;-50
2022/01/03 08:46:49;;;;;;;6.70;2.70;;;10.60;99.90;;;;;;5032429;28;20476;-50
2022/01/03 08:49:18;;;;;;;15.23;3.43;;;10.70;99.90;;;;;;5032351;28;20788;-49
2022/01/03 08:51:45;;;;;;;11.23;3.17;;;10.70;99.90;;;;;;5031977;28;20935;-49
2022/01/03 08:54:12;;;;;;;10.23;3.00;;;10.80;99.90;;;;;;5032322;28;20900;-50
2022/01/03 08:56:39;;;;;;;13.83;3.93;;;10.80;99.90;;;;;;5032337;28;20445;-49
2022/01/03 08:59:07;;;;;;;13.33;3.30;;;10.90;99.90;;;;;;5014520;28;20466;-50
2022/01/03 09:01:34;;;;;;;14.97;3.23;;;10.90;99.90;;;;;;5032655;28;20742;-50
2022/01/03 09:04:00;;;;;;;8.60;3.27;;;10.70;99.90;;;;;;5031680;28;20445;-49
2022/01/03 09:06:29;;;;;;;7.90;2.83;;;11.00;99.90;;;;;;5031994;28;20483;-51
2022/01/03 09:08:56;;;;;;;14.63;4.00;;;11.00;99.90;;;;;;5031787;28;20431;-50
2022/01/03 09:11:23;;;;;;;9.83;2.80;;;11.00;99.90;;;;;;5032993;28;20435;-50
2022/01/03 09:13:50;;;;;;;6.63;3.37;;;11.00;99.90;;;;;;5032233;28;20965;-51
2022/01/03 09:16:17;;;;;;;10.13;3.80;;;11.10;99.90;;;;;;5032100;28;20463;-50
2022/01/03 09:18:43;;;;;;;9.23;3.30;;;11.20;99.90;;;;;;5031560;28;20434;-51
2022/01/03 09:21:10;;;;;;;6.63;2.27;;;11.20;99.90;;;;;;5032136;28;20411;-50
2022/01/03 09:23:42;;;;;;;11.30;3.30;;;11.30;99.90;;;;;;5031767;28;20472;-49
2022/01/03 09:28:53;;;;;;;9.50;3.83;;;11.30;99.90;;;;;;5031323;28;20446;-50
2022/01/03 09:31:25;;;;;;;17.40;5.50;;;11.30;99.90;;;;;;5031748;28;20437;-50
2022/01/03 09:33:52;;;;;;;11.17;2.87;;;11.30;99.90;;;;;;5031669;28;20531;-50
2022/01/03 09:36:19;;;;;;;13.10;3.37;;;11.30;99.90;;;;;;5030544;28;20435;-50
2022/01/03 09:38:47;;;;;;;11.57;3.73;;;11.30;99.90;;;;;;5031218;28;20417;-51
2022/01/03 09:41:18;;;;;;;11.13;3.93;;;11.40;99.90;;;;;;5031935;28;20452;-50
2022/01/03 09:43:49;;;;;;;12.00;3.20;;;11.60;99.90;;;;;;5011659;28;20788;-50
2022/01/03 09:46:21;;;;;;;12.00;4.10;;;11.50;99.90;;;;;;5011405;28;20479;-51
2022/01/03 09:48:52;;;;;;;19.13;3.93;;;11.50;99.90;;;;;;5011249;28;20435;-51
2022/01/03 09:51:20;;;;;;;11.20;4.33;;;11.60;99.90;;;;;;5011182;28;20982;-49
2022/01/03 09:53:50;;;;;;;8.33;2.70;;;11.60;99.90;;;;;;5009729;28;20958;-49
2022/01/03 09:56:18;;;;;;;7.10;2.70;;;11.50;99.90;;;;;;5011089;28;20445;-51
2022/01/03 09:58:45;;;;;;;15.03;3.50;;;11.70;99.90;;;;;;5011170;28;20512;-51
2022/01/03 10:01:12;;;;;;;9.97;3.53;;;11.70;99.90;;;;;;5011170;28;20434;-50
2022/01/03 10:03:41;;;;;;;13.83;4.07;;;11.70;99.90;;;;;;5010899;28;20434;-50
2022/01/03 10:06:08;;;;;;;7.90;3.97;;;11.80;99.90;;;;;;5013766;28;20542;-50
2022/01/03 10:08:34;;;;;;;10.00;3.10;;;11.70;99.90;;;;;;5016897;28;20442;-51
2022/01/03 10:11:02;;;;;;;10.93;3.30;;;11.70;99.90;;;;;;5034790;28;20449;-51
2022/01/03 10:13:29;;;;;;;11.30;3.10;;;11.80;99.90;;;;;;5035677;28;20455;-58
2022/01/03 10:15:56;;;;;;;9.33;3.10;;;11.80;99.90;;;;;;5035029;28;20819;-50
2022/01/03 10:18:22;;;;;;;9.47;2.90;;;11.80;99.90;;;;;;5016658;28;20933;-50
2022/01/03 10:20:49;;;;;;;8.60;3.13;;;11.80;99.90;;;;;;5034949;28;20780;-51
2022/01/03 10:23:17;;;;;;;9.83;4.23;;;11.80;99.90;;;;;;5034778;28;20475;-50
2022/01/03 10:25:46;;;;;;;10.27;2.90;;;11.80;99.90;;;;;;5035338;28;20433;-50
2022/01/03 10:28:21;;;;;;;11.90;3.30;;;11.90;99.90;;;;;;5034615;28;20505;-51
2022/01/03 10:30:48;;;;;;;17.20;4.10;;;11.90;99.90;;;;;;5034876;28;20459;-51
2022/01/03 10:33:20;;;;;;;9.57;3.63;;;11.90;99.90;;;;;;5035159;28;20752;-50
2022/01/03 10:35:48;;;;;;;12.53;3.67;;;11.90;99.90;;;;;;5034315;28;20444;-51
2022/01/03 10:38:32;;;;;;;12.03;3.87;;;12.00;99.90;;;;;;5034525;28;20470;-50
2022/01/03 10:41:11;;;;;;;9.60;3.80;;;12.10;99.90;;;;;;5016846;28;20459;-51
2022/01/03 10:43:39;;;;;;;9.97;4.50;;;12.20;99.90;;;;;;5034637;28;20462;-51
2022/01/03 10:46:18;;;;;;;14.57;4.47;;;12.30;99.90;;;;;;5034592;28;20439;-51
2022/01/03 10:48:45;;;;;;;17.70;4.20;;;12.40;99.90;;;;;;5034059;28;20874;-51
2022/01/03 10:51:11;;;;;;;10.00;3.53;;;12.40;99.90;;;;;;5034647;28;20442;-50
2022/01/03 10:53:40;;;;;;;14.43;4.50;;;12.40;99.90;;;;;;5034578;28;20459;-51
2022/01/03 10:56:26;;;;;;;12.33;4.30;;;12.40;99.90;;;;;;5033898;28;20457;-50
2022/01/03 10:58:56;;;;;;;11.40;4.03;;;12.40;99.90;;;;;;5034125;28;20433;-50
2022/01/03 11:01:24;;;;;;;11.63;4.10;;;12.40;99.90;;;;;;5034184;28;20478;-55
2022/01/03 11:03:52;;;;;;;11.70;4.53;;;12.40;99.90;;;;;;5034297;28;20455;-50
2022/01/03 11:06:25;;;;;;;18.47;4.50;;;12.30;99.90;;;;;;5034057;28;20500;-50
2022/01/03 11:11:39;;;;;;;13.73;4.53;;;12.10;99.90;;;;;;5034092;28;20433;-51
2022/01/03 11:14:08;;;;;;;20.37;5.93;;;12.30;99.90;;;;;;5034310;28;20482;-51
2022/01/03 11:16:39;;;;;;;13.13;5.03;;;12.30;99.90;;;;;;5033566;28;20779;-50
2022/01/03 11:19:06;;;;;;;13.00;4.27;;;12.40;99.90;;;;;;5033652;28;20520;-50
2022/01/03 11:21:34;;;;;;;9.93;3.93;;;12.40;99.90;;;;;;5033618;28;20410;-51
2022/01/03 11:24:08;;;;;;;9.97;4.13;;;12.40;99.90;;;;;;5033714;28;20891;-50
2022/01/03 11:26:38;;;;;;;13.60;6.40;;;12.40;99.90;;;;;;5033655;28;20523;-50
2022/01/03 11:29:06;;;;;;;9.73;4.33;;;12.30;99.90;;;;;;5033197;28;20807;-51
2022/01/03 11:31:38;;;;;;;12.60;5.90;;;12.30;99.90;;;;;;5033475;28;20442;-51
2022/01/03 11:34:06;;;;;;;13.30;5.60;;;12.30;99.90;;;;;;5034391;28;20446;-51
2022/01/03 11:36:35;;;;;;;13.97;5.43;;;12.40;99.90;;;;;;5033563;28;20439;-55
2022/01/03 11:39:07;;;;;;;12.17;5.03;;;12.40;99.90;;;;;;5033045;28;20438;-52
2022/01/03 11:41:34;;;;;;;16.77;6.70;;;12.30;99.90;;;;;;5033624;28;20425;-53
2022/01/03 11:44:02;;;;;;;12.97;5.40;;;12.40;99.90;;;;;;5033429;28;20431;-53
2022/01/03 11:46:30;;;;;;;11.53;4.97;;;12.40;99.90;;;;;;5033670;28;20409;-54
2022/01/03 11:48:57;;;;;;;14.67;5.17;;;12.40;99.90;;;;;;5032922;28;20468;-52
2022/01/03 11:51:29;;;;;;;14.83;5.10;;;12.40;99.90;;;;;;5027069;28;20524;-52
2022/01/03 11:53:57;;;;;;;10.07;4.40;;;12.40;99.90;;;;;;5016136;28;20463;-51
2022/01/03 11:56:25;;;;;;;11.70;4.87;;;12.40;99.90;;;;;;5033545;28;20446;-52
2022/01/03 11:59:00;;;;;;;14.77;4.67;;;12.60;99.90;;;;;;5029623;28;20461;-51
2022/01/03 12:04:23;;;;;;;13.43;4.90;;;12.60;99.90;;;;;;5030366;28;20452;-51
2022/01/03 12:06:49;;;;;;;11.83;5.00;;;12.70;99.90;;;;;;5032459;28;20456;-52
2022/01/03 12:09:18;;;;;;;13.20;4.47;;;12.70;99.90;;;;;;5033523;28;20469;-56
2022/01/03 12:11:47;;;;;;;13.70;5.00;;;12.60;99.90;;;;;;5032825;28;20410;-52
2022/01/03 12:14:16;;;;;;;21.97;6.30;;;12.60;99.90;;;;;;5015310;28;20458;-52
2022/01/03 12:16:48;;;;;;;11.70;4.90;;;12.40;99.90;;;;;;5019216;28;20425;-51
2022/01/03 12:19:28;;;;;;;13.43;5.10;;;12.50;99.90;;;;;;5012878;28;20808;-53
2022/01/03 12:22:07;;;;;;;13.73;4.70;;;12.50;99.90;;;;;;5012608;28;20491;-53
2022/01/03 12:24:55;;;;;;;14.30;4.90;;;12.50;99.90;;;;;;5019095;28;20411;-51
2022/01/03 12:27:31;;;;;;;16.05;5.32;;;12.50;99.90;;;;;;5031744;28;20452;-52
2022/01/03 12:30:19;;;;;;;15.63;5.33;;;12.70;99.90;;;;;;5013807;28;20218;-52
2022/01/03 12:33:24;;;;;;;15.20;4.60;;;12.60;99.90;;;;;;5031488;28;20464;-52
2022/01/03 12:36:11;;;;;;;15.80;5.80;;;12.60;99.90;;;;;;5031621;28;20513;-52
2022/01/03 12:38:38;;;;;;;15.40;5.73;;;12.90;99.90;;;;;;5032107;28;20430;-51
2022/01/03 12:41:05;;;;;;;11.40;4.70;;;12.90;99.90;;;;;;5032151;28;20449;-52
2022/01/03 12:43:43;;;;;;;10.23;4.00;;;12.80;99.90;;;;;;5032070;28;20549;-52
2022/01/03 12:46:18;;;;;;;10.43;4.10;;;12.70;99.90;;;;;;5031528;28;20422;-51
2022/01/03 12:48:46;;;;;;;17.93;5.10;;;12.70;99.90;;;;;;5031852;28;20493;-52
2022/01/03 12:51:15;;;;;;;11.83;4.60;;;12.60;99.90;;;;;;5014705;28;20448;-52
2022/01/03 12:53:56;;;;;;;12.33;5.73;;;12.60;99.90;;;;;;5031955;28;20435;-52
2022/01/03 12:56:33;;;;;;;10.40;4.37;;;12.60;99.90;;;;;;5030365;28;20464;-51
2022/01/03 12:59:12;;;;;;;18.10;5.60;;;12.80;99.90;;;;;;5022770;28;20444;-52
2022/01/03 13:01:38;;;;;;;14.52;5.70;;;12.60;99.90;;;;;;5012205;28;20427;-52
2022/01/03 13:04:26;;;;;;;14.70;4.53;;;12.70;99.90;;;;;;5011727;28;20918;-50
2022/01/03 13:07:02;;;;;;;13.20;4.27;;;12.80;99.90;;;;;;5019732;28;20198;-51
2022/01/03 13:09:29;;;;;;;13.30;4.20;;;12.70;99.90;;;;;;5031825;28;20483;-51
2022/01/03 13:11:59;;;;;;;18.27;4.70;;;12.50;99.90;;;;;;5031690;28;20832;-53
2022/01/03 13:14:27;;;;;;;10.73;4.53;;;12.70;99.90;;;;;;5031568;28;20443;-51